Terminal Aerodrome Forecast
Issued by NWS Midland/Odessa, TX

Home | Current Version | Previous Version | Text Only | Print | Product List | Glossary On
Versions: 1 2 3 4 5 6 7 8 9 10 11 12 13 14
996
FTUS44 KMAF 080706 AAB
TAFMAF
TAF AMD
KMAF 080706Z 0807/0906 07007KT P6SM BKN250
      TEMPO 0807/0810 05014G24KT
     FM081900 25005KT P6SM SCT250=

USA.gov is the U.S. government's official web portal to all federal, state and local government web resources and services.